Terminal Aerodrome Forecast
Issued by NWS Blacksburg, VA

Home | Current Version | Previous Version | Text Only | Print | Product List | Glossary On
Versions: 1 2 3 4 5 6 7 8 9 10 11 12 13
000
FTUS41 KRNK 252340
TAFROA
TAF
KROA 252340Z 2600/2624 27010KT P6SM SCT050
      TEMPO 2601/2604 BKN050
     FM260400 30010G18KT P6SM SCT040
     FM261500 29015G25KT P6SM SKC=

USA.gov is the U.S. government's official web portal to all federal, state and local government web resources and services.